Airport ICAO


07:57 UTC

27°C

Clear skies


An affordable passengers' Moving Map for your aircraft. Made for the iPad and the iPhone
More information here

LFMN Cote D'Azur


Nice FRANCE   VFR CAVOK


METAR LFMN 210730Z 05004KT CAVOK 27/17 Q1017 NOSIG 0h27min

TAF LFMN 210200Z 2103/2209 34010KT CAVOK BECMG 2108/2110 18010KT BECMG 2117/2119 08010KT TEMPO 2200/2209 09020KT PROB30 TEMPO 2201/2209 BKN014 5h57min





NOTAMS

OPEN